createdAt,value
2019-02-23T00:01:44.162Z,103087.10
2019-02-23T00:06:46.210Z,103091.48
2019-02-23T00:11:48.435Z,103099.23
2019-02-23T00:16:50.503Z,103106.58
2019-02-23T00:21:52.584Z,103099.17
2019-02-23T00:26:54.637Z,103113.36
2019-02-23T00:31:56.736Z,103116.86
2019-02-23T00:36:58.852Z,103102.23
2019-02-23T00:42:00.814Z,103099.28
2019-02-23T00:47:04.660Z,103104.03
2019-02-23T00:52:06.794Z,103109.11
2019-02-23T00:57:08.826Z,103104.27
2019-02-23T01:02:12.103Z,103103.00
2019-02-23T01:07:14.674Z,103105.88
2019-02-23T01:12:17.049Z,103104.56
2019-02-23T01:17:19.046Z,103108.73
2019-02-23T01:22:21.183Z,103095.70
2019-02-23T01:27:25.623Z,103113.73
2019-02-23T01:32:27.724Z,103122.71
2019-02-23T01:37:29.761Z,103107.19
2019-02-23T01:42:31.707Z,103104.11
2019-02-23T01:47:33.781Z,103071.41
2019-02-23T01:52:35.837Z,103081.06
2019-02-23T01:57:37.914Z,103103.39
2019-02-23T02:02:40.287Z,103104.11
2019-02-23T02:07:44.511Z,103088.17
2019-02-23T02:12:46.622Z,103063.23
2019-02-23T02:17:48.725Z,103056.75
2019-02-23T02:22:50.790Z,103051.00
2019-02-23T02:27:54.538Z,103036.78
2019-02-23T02:32:56.681Z,103034.39
2019-02-23T02:37:58.754Z,103020.13
2019-02-23T02:43:00.832Z,103006.70
2019-02-23T02:48:02.924Z,103007.20
2019-02-23T02:53:04.993Z,103024.05
2019-02-23T02:58:07.662Z,103015.58
2019-02-23T03:03:09.687Z,102993.91
2019-02-23T03:08:11.787Z,102989.70
2019-02-23T03:13:13.902Z,103000.91
2019-02-23T03:18:15.972Z,102995.38
2019-02-23T03:23:18.025Z,102994.19
2019-02-23T03:28:20.062Z,102994.67
2019-02-23T03:33:22.111Z,102992.09
2019-02-23T03:38:24.134Z,102994.25
2019-02-23T03:43:26.255Z,102987.89
2019-02-23T03:48:28.291Z,102989.60
2019-02-23T03:53:30.363Z,102977.53
2019-02-23T03:58:32.490Z,102966.78
2019-02-23T04:03:34.452Z,102962.22
2019-02-23T04:08:36.485Z,102957.92
2019-02-23T04:13:38.629Z,102954.77
2019-02-23T04:18:40.720Z,102963.42
2019-02-23T04:23:42.828Z,102972.25
2019-02-23T04:28:44.971Z,102974.41
2019-02-23T04:33:47.081Z,102968.48
2019-02-23T04:38:49.253Z,102967.64
2019-02-23T04:43:51.518Z,102954.30
2019-02-23T04:48:53.599Z,102953.89
2019-02-23T04:53:55.699Z,102958.23
2019-02-23T04:58:57.769Z,102966.82
2019-02-23T05:03:59.848Z,102977.55
2019-02-23T05:09:02.162Z,102977.53
2019-02-23T05:14:04.222Z,102963.25
2019-02-23T05:19:06.373Z,102952.92
2019-02-23T05:24:08.439Z,102956.00
2019-02-23T05:29:10.495Z,102956.00
2019-02-23T05:34:12.548Z,102950.74
2019-02-23T05:39:17.687Z,102967.44
2019-02-23T05:44:18.623Z,102961.83
2019-02-23T05:49:20.767Z,102988.67
2019-02-23T05:54:22.822Z,102985.08
2019-02-23T05:59:24.910Z,102990.30
2019-02-23T06:04:27.010Z,102980.05
2019-02-23T06:09:30.865Z,102996.39
2019-02-23T06:14:33.030Z,102993.84
2019-02-23T06:19:35.161Z,103016.11
2019-02-23T06:24:37.376Z,103013.17
2019-02-23T06:29:39.425Z,103040.66
2019-02-23T06:34:41.504Z,103048.33
2019-02-23T06:39:43.640Z,103054.66
2019-02-23T06:44:45.703Z,103063.63
2019-02-23T06:49:47.863Z,103065.73
2019-02-23T06:54:50.016Z,103070.75
2019-02-23T06:59:52.082Z,103069.34
2019-02-23T07:04:56.510Z,103080.55
2019-02-23T07:09:58.562Z,103094.70
2019-02-23T07:15:00.632Z,103109.84
2019-02-23T07:20:02.859Z,103103.78
2019-02-23T07:25:05.172Z,103100.69
2019-02-23T07:30:08.603Z,103097.59
2019-02-23T07:35:10.735Z,103112.34
2019-02-23T07:40:12.858Z,103119.78
2019-02-23T07:45:14.905Z,103110.66
2019-02-23T07:50:16.954Z,103113.22
2019-02-23T07:55:19.119Z,103122.39
2019-02-23T08:00:21.296Z,103116.14
2019-02-23T08:05:23.334Z,103133.03
2019-02-23T08:10:25.406Z,103133.80
2019-02-23T08:15:27.436Z,103157.48
2019-02-23T08:20:29.465Z,103162.30
2019-02-23T08:25:31.531Z,103168.84
2019-02-23T08:30:33.628Z,103176.62
2019-02-23T08:35:35.707Z,103153.94
2019-02-23T08:40:46.086Z,103136.90
2019-02-23T08:46:02.726Z,103151.24
2019-02-23T08:51:04.899Z,103138.39
2019-02-23T08:56:07.157Z,103124.41
2019-02-23T09:01:09.732Z,103107.03
2019-02-23T09:06:11.782Z,103106.29
2019-02-23T09:11:13.805Z,103094.71
2019-02-23T09:16:15.932Z,103112.81
2019-02-23T09:21:18.335Z,103103.23
2019-02-23T09:26:24.002Z,103094.28
2019-02-23T09:31:26.477Z,103090.99
2019-02-23T09:36:28.558Z,103093.28
2019-02-23T09:41:34.434Z,103082.77
2019-02-23T09:46:36.609Z,103080.58
2019-02-23T09:51:44.729Z,103074.75
2019-02-23T09:56:46.842Z,103059.44
2019-02-23T10:01:48.984Z,103056.36
2019-02-23T10:06:54.656Z,103054.56
2019-02-23T10:11:57.016Z,103049.24
2019-02-23T10:16:59.064Z,103046.23
2019-02-23T10:22:04.790Z,103033.02
2019-02-23T10:27:06.926Z,103030.89
2019-02-23T10:32:09.097Z,103030.86
2019-02-23T10:37:11.168Z,103027.52
2019-02-23T10:42:13.348Z,103019.11
2019-02-23T10:47:15.399Z,103023.05
2019-02-23T10:52:21.975Z,103011.31
2019-02-23T10:57:26.184Z,103010.27
2019-02-23T11:02:28.277Z,103016.43
2019-02-23T11:07:30.440Z,103009.44
2019-02-23T11:12:32.482Z,103006.03
2019-02-23T11:17:34.604Z,102993.60
2019-02-23T11:22:36.886Z,102990.52
2019-02-23T11:27:39.147Z,102982.00
2019-02-23T11:32:41.302Z,102962.37
2019-02-23T11:37:44.455Z,102956.09
2019-02-23T11:42:46.746Z,102947.35
2019-02-23T11:47:48.868Z,102939.67
2019-02-23T11:52:50.960Z,102940.96
2019-02-23T11:57:53.076Z,102951.93
2019-02-23T12:02:55.295Z,102947.71
2019-02-23T12:07:57.431Z,102954.80
2019-02-23T12:12:59.500Z,102946.22
2019-02-23T12:18:01.644Z,102949.73
2019-02-23T12:23:03.773Z,102943.28
2019-02-23T12:28:05.933Z,102932.59
2019-02-23T12:33:10.320Z,102921.82
2019-02-23T12:38:14.256Z,102925.25
2019-02-23T12:43:16.365Z,102938.31
2019-02-23T12:48:18.446Z,102921.97
2019-02-23T12:53:20.588Z,102915.80
2019-02-23T12:58:22.725Z,102907.87
2019-02-23T13:03:24.800Z,102902.48
2019-02-23T13:08:51.462Z,102900.38
2019-02-23T13:14:32.647Z,102883.23
2019-02-23T13:20:04.099Z,102888.17
2019-02-23T13:25:22.331Z,102877.06
2019-02-23T13:30:53.608Z,102889.48
2019-02-23T13:36:38.658Z,102896.66
2019-02-23T13:42:18.713Z,102889.06
2019-02-23T13:48:03.420Z,102896.63
2019-02-23T13:53:46.302Z,102887.98
2019-02-23T13:59:15.922Z,102880.79
2019-02-23T14:04:50.797Z,102878.73
2019-02-23T14:10:42.620Z,102871.98
2019-02-23T14:16:47.904Z,102865.99
2019-02-23T14:22:35.661Z,102879.81
2019-02-23T14:28:47.183Z,102867.27
2019-02-23T14:34:41.946Z,102867.60
2019-02-23T14:40:20.699Z,102870.11
2019-02-23T14:46:16.888Z,102863.58
2019-02-23T14:52:16.797Z,102872.98
2019-02-23T14:58:03.030Z,102874.67
2019-02-23T15:03:46.918Z,102851.13
2019-02-23T15:09:25.335Z,102849.02
2019-02-23T15:15:42.808Z,102832.94
2019-02-23T15:21:20.369Z,102818.67
2019-02-23T15:27:09.788Z,102822.58
2019-02-23T15:32:49.632Z,102803.20
2019-02-23T15:38:38.355Z,102808.23
2019-02-23T15:44:21.588Z,102806.05
2019-02-23T15:49:30.894Z,102799.81
2019-02-23T15:54:35.185Z,102809.02
2019-02-23T15:59:37.182Z,102821.66
2019-02-23T16:04:39.344Z,102839.48
2019-02-23T16:09:41.410Z,102851.19
2019-02-23T16:14:43.488Z,102848.14
2019-02-23T16:19:45.773Z,102837.50
2019-02-23T16:24:48.062Z,102842.46
2019-02-23T16:29:50.373Z,102845.83
2019-02-23T16:34:52.481Z,102844.57
2019-02-23T16:39:54.564Z,102839.91
2019-02-23T16:45:00.016Z,102837.23
2019-02-23T16:50:02.320Z,102845.61
2019-02-23T16:55:04.612Z,102856.53
2019-02-23T17:00:07.332Z,102851.82
2019-02-23T17:05:11.679Z,102857.89
2019-02-23T17:10:13.746Z,102859.47
2019-02-23T17:15:15.794Z,102844.70
2019-02-23T17:20:18.865Z,102842.84
2019-02-23T17:25:21.034Z,102850.00
2019-02-23T17:30:23.105Z,102848.45
2019-02-23T17:35:25.128Z,102844.92
2019-02-23T17:40:27.163Z,102846.02
2019-02-23T17:45:29.209Z,102848.30
2019-02-23T17:50:33.396Z,102853.02
2019-02-23T17:55:35.414Z,102851.28
2019-02-23T18:00:37.473Z,102839.89
2019-02-23T18:05:39.524Z,102829.36
2019-02-23T18:10:41.598Z,102831.96
2019-02-23T18:15:43.653Z,102818.79
2019-02-23T18:20:45.716Z,102818.19
2019-02-23T18:25:47.778Z,102818.33
2019-02-23T18:30:49.804Z,102820.00
2019-02-23T18:35:51.924Z,102822.69
2019-02-23T18:40:54.000Z,102794.95
2019-02-23T18:45:57.946Z,102791.15
2019-02-23T18:51:00.007Z,102793.32
2019-02-23T18:56:03.186Z,102789.53
2019-02-23T19:01:05.251Z,102779.08
2019-02-23T19:06:07.352Z,102787.83
2019-02-23T19:11:09.459Z,102797.81
2019-02-23T19:16:11.486Z,102787.56
2019-02-23T19:21:13.712Z,102793.41
2019-02-23T19:26:15.845Z,102786.11
2019-02-23T19:31:17.944Z,102791.22
2019-02-23T19:36:25.133Z,102785.19
2019-02-23T19:41:27.412Z,102783.48
2019-02-23T19:46:29.541Z,102785.52
2019-02-23T19:51:31.649Z,102782.92
2019-02-23T19:56:35.551Z,102772.86
2019-02-23T20:01:37.658Z,102762.44
2019-02-23T20:06:39.721Z,102764.12
2019-02-23T20:11:41.753Z,102755.06
2019-02-23T20:16:44.181Z,102758.74
2019-02-23T20:21:46.257Z,102761.83
2019-02-23T20:26:55.392Z,102760.15
2019-02-23T20:31:52.315Z,102766.45
2019-02-23T20:36:54.371Z,102762.17
2019-02-23T20:41:56.468Z,102772.58
2019-02-23T20:46:58.589Z,102772.48
2019-02-23T20:52:04.042Z,102768.69
2019-02-23T20:57:13.682Z,102766.88
2019-02-23T21:02:10.350Z,102766.96
2019-02-23T21:07:12.441Z,102766.64
2019-02-23T21:12:14.566Z,102765.66
2019-02-23T21:17:16.713Z,102763.94
2019-02-23T21:22:19.390Z,102761.42
2019-02-23T21:27:21.577Z,102763.50
2019-02-23T21:32:23.666Z,102757.61
2019-02-23T21:37:25.708Z,102752.03
2019-02-23T21:42:27.756Z,102752.68
2019-02-23T21:47:29.811Z,102745.76
2019-02-23T21:52:31.919Z,102736.59
2019-02-23T21:57:34.041Z,102738.05
2019-02-23T22:02:36.184Z,102729.95
2019-02-23T22:07:38.381Z,102735.89
2019-02-23T22:12:42.349Z,102723.98
2019-02-23T22:17:44.434Z,102734.72
2019-02-23T22:22:46.530Z,102730.02
2019-02-23T22:27:52.264Z,102731.24
2019-02-23T22:32:55.597Z,102727.89
2019-02-23T22:37:57.707Z,102730.24
2019-02-23T22:42:59.776Z,102728.48
2019-02-23T22:48:01.797Z,102727.45
2019-02-23T22:53:03.880Z,102735.19
2019-02-23T22:58:05.947Z,102732.33
2019-02-23T23:03:07.988Z,102723.16
2019-02-23T23:08:10.033Z,102717.09
2019-02-23T23:13:12.095Z,102721.86
2019-02-23T23:18:14.214Z,102717.99
2019-02-23T23:23:16.258Z,102735.81
2019-02-23T23:28:18.373Z,102727.24
2019-02-23T23:33:20.436Z,102731.45
2019-02-23T23:38:22.521Z,102717.67
2019-02-23T23:43:24.584Z,102724.19
2019-02-23T23:48:26.643Z,102719.94
2019-02-23T23:53:28.705Z,102710.82
2019-02-23T23:58:30.784Z,102701.08
